Terminal Aerodrome Forecast
Issued by NWS

Home | Current Version | Previous Version | Text Only | Print | Product List | Glossary On
Versions: 1 2 3 4 5 6 7 8 9 10 11 12 13 14 15 16 17
000
FTUS44 KLZK 281200 AAA
TAFPBF
TAF AMD
KPBF 281203Z 2812/2912 36009KT P6SM VCSH SCT015 OVC035
      TEMPO 2812/2816 BKN015
     FM281900 01006KT P6SM SCT035 BKN080=

USA.gov is the U.S. government's official web portal to all federal, state and local government web resources and services.